Flight Track Log - Related Links

Times and Time Zones

All times are in EDT time to prevent confusion due to time zone crossing. See the BJS542 flight status page for this flight to view local times or setup timezone preferences in your user account.

Time Position Orientation Groundspeed Altitude Reporting Facility
EDT Latitude Longitude Course Direction KTS MPH feet Rate Location/Type
Mon 10:56:27 AM 27.6458 -80.3872 125° Southeast 305 351 1,900  Level Miami Center
Mon 10:57:27 AM 27.6325 -80.3258 104° East 250 288 4,100 3,150 Climbing Miami Center
Mon 10:58:27 AM 27.6194 -80.2600 103° East 205 236 8,200 3,200 Climbing Miami Center
Mon 10:59:27 AM 27.6044 -80.1961 105° East 220 253 10,500 2,850 Climbing Miami Center
Mon 11:00:00 AM 27.3650 -79.9774 125° Southeast  Level FlightAware Approximate
Mon 11:00:27 AM 27.5897 -80.1044 100° East 267 307 13,900  Level Miami Center
Mon 11:01:27 AM 27.5631 -79.9864 104° East 332 382 17,400 3,150 Climbing Miami Center
Mon 11:02:27 AM 27.5042 -79.9053 129° Southeast 358 412 20,200 1,800 Climbing Miami Center
Mon 11:03:27 AM 27.4333 -79.8050 129° Southeast 389 448 21,000 400 Climbing Miami Center
Mon 11:04:27 AM 27.3603 -79.7028 129° Southeast 416 479 21,000  Level Miami Center
Mon 11:05:27 AM 27.2789 -79.5908 129° Southeast 416 479 21,000  Level Miami Center
Mon 11:06:27 AM 27.2033 -79.4886 130° Southeast 416 479 21,000  Level Miami Center
Mon 11:07:27 AM 27.1278 -79.3889 130° Southeast 421 484 21,000  Level Miami Center
Mon 11:08:27 AM 27.0583 -79.2989 131° Southeast 416 479 21,000  Level Miami Center
Mon 11:09:27 AM 26.9828 -79.1969 130° Southeast 416 479 21,000  Level Miami Center
Mon 11:10:27 AM 26.9092 -79.0978 130° Southeast 411 473 21,000  Level Miami Center
Mon 11:11:27 AM 26.8333 -78.9961 130° Southeast 416 479 21,000  Level Miami Center
Mon 11:12:27 AM 26.7597 -78.8969 130° Southeast 416 479 21,000  Level Miami Center
Mon 11:13:27 AM 26.6839 -78.7958 130° Southeast 411 473 21,000  Level Miami Center
Mon 11:14:27 AM 26.6139 -78.7017 130° Southeast 411 473 21,000  Level Miami Center
Mon 11:15:27 AM 26.5297 -78.5889 130° Southeast 417 480 21,000  Level Miami Center
Mon 11:16:27 AM 26.4536 -78.4881 130° Southeast 417 480 21,000  Level Miami Center
Mon 11:17:27 AM 26.3753 -78.3917 132° Southeast 423 487 21,000  Level Miami Center
Mon 11:18:27 AM 26.3072 -78.3053 131° Southeast 417 480 21,000  Level Miami Center
Mon 11:19:27 AM 26.2308 -78.2047 130° Southeast 411 473 21,000  Level Miami Center
Mon 11:20:27 AM 26.1586 -78.1019 128° Southeast 416 479 21,000  Level Miami Center
Mon 11:21:27 AM 26.0800 -78.0017 131° Southeast 416 479 21,000  Level Miami Center
Mon 11:22:27 AM 26.0033 -77.8992 130° Southeast 421 484 21,000 -200 Level Miami Center
Mon 11:23:27 AM 25.9833 -77.7789 100° East 399 459 20,600 -1,100 Descending Miami Center
Mon 11:24:27 AM 25.9881 -77.6586 87° East 382 440 18,800 -1,650 Descending Miami Center
Mon 11:25:27 AM 25.9133 -77.5889 140° Southeast 361 415 17,300 -1,600 Descending Miami Center
Mon 11:26:27 AM 25.8258 -77.5467 157° South 322 371 15,600 -1,600 Descending Miami Center
Mon 11:27:27 AM 25.7464 -77.5164 161° South 316 364 14,100 -1,500 Descending Miami Center
Mon 11:28:27 AM 25.6692 -77.4906 163° South 298 343 12,600 -1,500 Descending Miami Center

Login

Don't have an account? Register now (free) for customized features, flight alerts, and more!